Time;durP1;ratioP1;P1;durP2;ratioP2;P2;SDS_P1;SDS_P2;PMS_P1;PMS_P2;Temp;Humidity;BMP_temperature;BMP_pressure;BME280_temperature;BME280_humidity;BME280_pressure;Samples;Min_cycle;Max_cycle;Signal;HPM_P1;HPM_P2
2022/11/25 00:02:45;;;;;;;132.65;123.00;;;;;;;;;;10256891;28;20390;-64
2022/11/25 00:07:42;;;;;;;130.80;121.60;;;;;;;;;;10248739;28;20561;-64
2022/11/25 00:12:38;;;;;;;127.60;118.75;;;;;;;;;;10236696;28;20127;-64
2022/11/25 00:17:34;;;;;;;128.77;120.18;;;;;;;;;;10247586;28;20403;-64
2022/11/25 00:22:30;;;;;;;134.65;125.60;;;;;;;;;;10241683;28;20052;-64
2022/11/25 00:27:27;;;;;;;130.52;121.63;;;;;;;;;;10242724;28;20423;-64
2022/11/25 00:32:23;;;;;;;131.82;122.28;;;;;;;;;;10245078;28;20044;-64
2022/11/25 00:37:19;;;;;;;130.55;120.82;;;;;;;;;;10248148;28;20128;-64
2022/11/25 00:47:31;;;;;;;130.30;121.20;;;;;;;;;;10240515;28;20045;-64
2022/11/25 00:52:27;;;;;;;130.43;121.40;;;;;;;;;;10239749;28;20052;-64
2022/11/25 00:57:23;;;;;;;132.95;123.22;;;;;;;;;;10245221;28;20041;-64
2022/11/25 01:02:19;;;;;;;135.15;125.38;;;;;;;;;;10247139;28;20121;-64
2022/11/25 01:07:16;;;;;;;136.25;126.70;;;;;;;;;;10243482;28;20049;-64
2022/11/25 01:12:12;;;;;;;134.55;125.03;;;;;;;;;;10251796;28;20075;-64
2022/11/25 01:17:08;;;;;;;135.35;125.75;;;;;;;;;;10243428;28;20403;-64
2022/11/25 01:22:06;;;;;;;139.30;128.50;;;;;;;;;;10243037;28;20401;-64
2022/11/25 01:27:02;;;;;;;137.80;127.85;;;;;;;;;;10233198;28;20421;-64
2022/11/25 01:31:58;;;;;;;140.15;129.63;;;;;;;;;;10250326;28;20065;-64
2022/11/25 01:36:54;;;;;;;137.02;127.35;;;;;;;;;;10238234;28;20801;-64
2022/11/25 01:41:51;;;;;;;138.10;128.10;;;;;;;;;;10249370;28;20053;-64
2022/11/25 01:47:01;;;;;;;140.68;130.57;;;;;;;;;;10251751;28;20433;-64
2022/11/25 01:51:57;;;;;;;143.50;133.80;;;;;;;;;;10241841;28;20491;-64
2022/11/25 01:56:59;;;;;;;141.02;131.43;;;;;;;;;;10246195;28;20048;-64
2022/11/25 02:01:57;;;;;;;142.98;133.07;;;;;;;;;;10247427;28;20485;-64
2022/11/25 02:06:55;;;;;;;144.60;134.80;;;;;;;;;;10247179;28;20041;-64
2022/11/25 02:11:52;;;;;;;146.02;135.98;;;;;;;;;;10248807;28;20443;-64
2022/11/25 02:16:48;;;;;;;144.50;134.75;;;;;;;;;;10243558;28;20458;-64
2022/11/25 02:21:46;;;;;;;145.07;135.45;;;;;;;;;;10243683;28;20435;-64
2022/11/25 02:26:43;;;;;;;140.98;131.15;;;;;;;;;;10239016;28;20052;-64
2022/11/25 02:31:39;;;;;;;141.60;131.20;;;;;;;;;;10245198;28;20076;-64
2022/11/25 02:36:36;;;;;;;140.00;130.20;;;;;;;;;;10239686;28;20045;-64
2022/11/25 02:41:37;;;;;;;140.13;129.70;;;;;;;;;;10243438;28;20125;-64
2022/11/25 02:46:34;;;;;;;140.68;130.43;;;;;;;;;;10232017;28;20049;-64
2022/11/25 02:51:31;;;;;;;140.05;129.95;;;;;;;;;;10246161;28;20145;-64
2022/11/25 02:56:29;;;;;;;145.00;132.93;;;;;;;;;;10248037;28;20048;-64
2022/11/25 03:01:25;;;;;;;143.88;133.43;;;;;;;;;;10241834;28;20052;-64
2022/11/25 03:06:22;;;;;;;141.30;131.18;;;;;;;;;;10254311;28;20098;-64
2022/11/25 03:11:19;;;;;;;140.30;129.93;;;;;;;;;;10257619;28;20473;-64
2022/11/25 03:16:15;;;;;;;143.82;133.68;;;;;;;;;;10247674;28;20136;-64
2022/11/25 03:21:11;;;;;;;138.70;129.15;;;;;;;;;;10244789;28;20128;-64
2022/11/25 03:26:07;;;;;;;144.63;134.48;;;;;;;;;;10252566;28;20075;-64
2022/11/25 03:31:08;;;;;;;143.98;133.98;;;;;;;;;;10251150;28;20045;-64
2022/11/25 03:36:05;;;;;;;145.70;135.55;;;;;;;;;;10243189;28;20037;-64
2022/11/25 03:41:01;;;;;;;144.95;135.10;;;;;;;;;;10259200;28;20047;-64
2022/11/25 03:45:57;;;;;;;146.48;135.98;;;;;;;;;;10246095;28;20132;-64
2022/11/25 03:50:53;;;;;;;148.15;138.20;;;;;;;;;;10255979;28;20076;-64
2022/11/25 03:55:50;;;;;;;146.60;136.45;;;;;;;;;;10245570;28;20049;-64
2022/11/25 04:00:46;;;;;;;149.02;138.80;;;;;;;;;;10250909;28;20056;-64
2022/11/25 04:05:42;;;;;;;150.35;140.18;;;;;;;;;;10244131;28;20063;-64
2022/11/25 04:10:38;;;;;;;151.55;141.07;;;;;;;;;;10249586;28;20048;-64
2022/11/25 04:15:35;;;;;;;148.45;138.57;;;;;;;;;;10247245;28;20037;-64
2022/11/25 04:20:31;;;;;;;154.88;144.57;;;;;;;;;;10241536;28;20059;-64
2022/11/25 04:25:27;;;;;;;149.73;139.98;;;;;;;;;;10255748;28;20045;-64
2022/11/25 04:30:24;;;;;;;150.57;140.48;;;;;;;;;;10250448;28;20527;-64
2022/11/25 04:35:20;;;;;;;152.80;142.82;;;;;;;;;;10246693;28;20050;-64
2022/11/25 04:40:16;;;;;;;151.93;141.73;;;;;;;;;;10253264;28;20037;-64
2022/11/25 04:45:14;;;;;;;149.45;139.23;;;;;;;;;;10249328;28;20052;-64
2022/11/25 04:50:20;;;;;;;144.55;134.82;;;;;;;;;;10256640;28;20059;-64
2022/11/25 04:55:16;;;;;;;149.32;139.57;;;;;;;;;;10243508;28;20227;-65
2022/11/25 05:00:13;;;;;;;146.32;136.80;;;;;;;;;;10248521;28;20053;-64
2022/11/25 05:05:09;;;;;;;142.45;132.25;;;;;;;;;;10243417;28;20414;-64
2022/11/25 05:10:05;;;;;;;142.57;133.55;;;;;;;;;;10242147;28;20055;-64
2022/11/25 05:15:04;;;;;;;141.73;132.32;;;;;;;;;;10242949;28;20430;-65
2022/11/25 05:20:00;;;;;;;134.57;125.22;;;;;;;;;;10243347;28;20462;-64
2022/11/25 05:24:57;;;;;;;136.15;126.78;;;;;;;;;;10239722;28;20468;-64
2022/11/25 05:29:53;;;;;;;140.77;131.48;;;;;;;;;;10240081;28;20045;-64
2022/11/25 05:34:51;;;;;;;135.05;125.38;;;;;;;;;;10241544;28;20056;-64
2022/11/25 05:39:47;;;;;;;139.60;130.18;;;;;;;;;;10247836;28;20044;-64
2022/11/25 05:44:44;;;;;;;136.23;127.07;;;;;;;;;;10253368;28;20132;-63
2022/11/25 05:49:40;;;;;;;140.50;131.07;;;;;;;;;;10238312;28;20045;-64
2022/11/25 05:54:36;;;;;;;135.80;126.78;;;;;;;;;;10252741;28;20044;-64
2022/11/25 05:59:33;;;;;;;140.60;130.43;;;;;;;;;;10242632;28;20034;-64
2022/11/25 06:04:29;;;;;;;141.77;131.90;;;;;;;;;;10242988;28;20033;-64
2022/11/25 06:09:25;;;;;;;140.93;131.50;;;;;;;;;;10238307;28;20522;-64
2022/11/25 06:14:21;;;;;;;139.10;129.68;;;;;;;;;;10240997;28;20038;-64
2022/11/25 06:19:18;;;;;;;141.27;131.25;;;;;;;;;;10245863;28;20454;-64
2022/11/25 06:24:14;;;;;;;140.23;130.82;;;;;;;;;;10252145;28;20562;-64
2022/11/25 06:29:10;;;;;;;133.50;124.22;;;;;;;;;;10256396;28;20045;-64
2022/11/25 06:34:08;;;;;;;134.32;125.15;;;;;;;;;;10244445;28;20435;-64
2022/11/25 06:39:04;;;;;;;136.85;127.50;;;;;;;;;;10251393;28;20579;-64
2022/11/25 06:44:00;;;;;;;138.43;129.25;;;;;;;;;;10250516;28;20044;-64
2022/11/25 06:48:57;;;;;;;135.27;126.40;;;;;;;;;;10254602;28;20045;-64
2022/11/25 06:53:54;;;;;;;136.35;127.35;;;;;;;;;;10259379;28;20053;-64
2022/11/25 06:58:51;;;;;;;136.82;127.65;;;;;;;;;;10255533;28;20042;-64
2022/11/25 07:03:48;;;;;;;132.85;124.03;;;;;;;;;;10254041;28;20128;-64
2022/11/25 07:08:44;;;;;;;132.25;123.00;;;;;;;;;;10248255;28;20401;-64
2022/11/25 07:13:40;;;;;;;137.00;128.30;;;;;;;;;;10255071;28;20526;-64
2022/11/25 07:18:37;;;;;;;140.43;131.40;;;;;;;;;;10251117;28;20080;-64
2022/11/25 07:23:34;;;;;;;143.40;134.13;;;;;;;;;;10253058;28;20065;-64
2022/11/25 07:28:30;;;;;;;143.98;134.80;;;;;;;;;;10242233;28;20515;-65
2022/11/25 07:33:27;;;;;;;140.27;130.55;;;;;;;;;;10245191;28;20080;-64
2022/11/25 07:38:23;;;;;;;142.88;133.20;;;;;;;;;;10244088;28;20149;-61
2022/11/25 07:43:19;;;;;;;146.13;136.63;;;;;;;;;;10249345;28;20124;-64
2022/11/25 07:48:15;;;;;;;139.77;130.68;;;;;;;;;;10252890;28;20063;-64
2022/11/25 07:53:12;;;;;;;142.98;133.30;;;;;;;;;;10251916;28;20591;-64
2022/11/25 07:58:08;;;;;;;138.82;130.10;;;;;;;;;;10245396;28;20049;-64
2022/11/25 08:03:04;;;;;;;129.65;120.95;;;;;;;;;;10247619;28;20069;-64
2022/11/25 08:08:00;;;;;;;132.95;124.53;;;;;;;;;;10248703;28;20041;-64
2022/11/25 08:12:57;;;;;;;131.77;122.82;;;;;;;;;;10251292;28;20083;-64
2022/11/25 08:17:53;;;;;;;133.07;124.47;;;;;;;;;;10236426;28;20048;-64
2022/11/25 08:22:49;;;;;;;125.93;118.10;;;;;;;;;;10253971;28;20079;-64
2022/11/25 08:27:46;;;;;;;126.63;118.20;;;;;;;;;;10256779;28;20061;-64
2022/11/25 08:32:43;;;;;;;121.82;114.32;;;;;;;;;;10252301;28;20056;-64
2022/11/25 08:37:40;;;;;;;120.72;113.43;;;;;;;;;;10249409;28;20057;-64
2022/11/25 08:42:36;;;;;;;119.57;112.28;;;;;;;;;;10253943;28;20037;-64
2022/11/25 08:47:32;;;;;;;114.95;107.70;;;;;;;;;;10247264;28;20132;-64
2022/11/25 08:52:29;;;;;;;113.10;106.15;;;;;;;;;;10254289;28;20098;-64
2022/11/25 08:57:25;;;;;;;115.50;108.80;;;;;;;;;;10247446;28;20502;-64
2022/11/25 09:02:21;;;;;;;106.63;100.32;;;;;;;;;;10245200;28;20057;-64
2022/11/25 09:07:17;;;;;;;102.35;95.65;;;;;;;;;;10245533;28;20060;-64
2022/11/25 09:12:14;;;;;;;99.60;93.32;;;;;;;;;;10248568;28;20053;-64
2022/11/25 09:17:11;;;;;;;95.40;89.32;;;;;;;;;;10250798;28;20136;-64
2022/11/25 09:22:07;;;;;;;92.38;86.68;;;;;;;;;;10240961;28;20053;-64
2022/11/25 09:27:04;;;;;;;83.28;77.93;;;;;;;;;;10246920;28;20406;-64
2022/11/25 09:32:00;;;;;;;77.97;73.07;;;;;;;;;;10252030;28;20581;-64
2022/11/25 09:36:56;;;;;;;76.80;71.72;;;;;;;;;;10248358;28;20473;-64
2022/11/25 09:47:59;;;;;;;77.27;72.37;;;;;;;;;;10249737;28;20052;-64
2022/11/25 09:53:02;;;;;;;78.07;72.95;;;;;;;;;;10248097;28;20091;-65
2022/11/25 09:58:09;;;;;;;77.90;72.47;;;;;;;;;;10242708;28;20055;-65
2022/11/25 10:03:05;;;;;;;81.35;75.68;;;;;;;;;;10249550;28;20392;-64
2022/11/25 10:08:07;;;;;;;82.32;76.82;;;;;;;;;;10244270;28;20049;-64
2022/11/25 10:13:04;;;;;;;84.25;78.85;;;;;;;;;;10242182;28;20127;-64
2022/11/25 10:18:04;;;;;;;89.30;83.68;;;;;;;;;;10248041;28;20052;-64
2022/11/25 10:23:07;;;;;;;88.97;83.03;;;;;;;;;;10257837;28;20140;-64
2022/11/25 10:28:11;;;;;;;94.75;87.68;;;;;;;;;;10249122;28;20044;-64
2022/11/25 10:33:13;;;;;;;91.35;85.55;;;;;;;;;;10242491;28;20414;-64
2022/11/25 10:38:18;;;;;;;96.85;89.97;;;;;;;;;;10235222;28;20694;-64
2022/11/25 10:43:14;;;;;;;99.75;92.90;;;;;;;;;;10231098;28;20048;-64
2022/11/25 10:48:19;;;;;;;99.00;92.55;;;;;;;;;;10254608;28;20091;-64
2022/11/25 10:53:24;;;;;;;103.07;95.95;;;;;;;;;;10251058;28;20046;-65
2022/11/25 10:58:23;;;;;;;101.72;94.88;;;;;;;;;;10241384;28;20551;-64
2022/11/25 11:03:22;;;;;;;105.10;98.15;;;;;;;;;;10241832;28;20049;-64
2022/11/25 11:08:20;;;;;;;107.07;100.30;;;;;;;;;;10243691;28;20225;-64
2022/11/25 11:13:16;;;;;;;101.93;94.97;;;;;;;;;;10253447;28;20121;-65
2022/11/25 11:18:24;;;;;;;101.60;94.63;;;;;;;;;;10248633;28;20452;-64
2022/11/25 11:23:21;;;;;;;104.68;96.93;;;;;;;;;;10244625;28;20041;-64
2022/11/25 11:28:26;;;;;;;110.07;102.88;;;;;;;;;;10253047;28;20053;-64
2022/11/25 11:33:41;;;;;;;106.72;99.80;;;;;;;;;;10256336;28;20052;-64
2022/11/25 11:38:44;;;;;;;108.47;100.85;;;;;;;;;;10243519;28;20048;-64
2022/11/25 11:43:48;;;;;;;107.20;100.18;;;;;;;;;;10253301;28;20037;-64
2022/11/25 11:48:52;;;;;;;104.68;97.45;;;;;;;;;;10248470;28;20144;-64
2022/11/25 11:54:07;;;;;;;109.40;101.90;;;;;;;;;;10242655;28;20045;-64
2022/11/25 11:59:12;;;;;;;109.82;102.53;;;;;;;;;;10249221;28;20052;-64
2022/11/25 12:04:14;;;;;;;109.63;102.22;;;;;;;;;;10248141;28;20503;-64
2022/11/25 12:09:19;;;;;;;112.50;105.38;;;;;;;;;;10241728;28;20057;-64
2022/11/25 12:14:23;;;;;;;112.60;104.63;;;;;;;;;;10257669;28;20041;-64
2022/11/25 12:19:22;;;;;;;113.20;106.05;;;;;;;;;;10250604;28;20041;-64
2022/11/25 12:24:41;;;;;;;111.70;104.15;;;;;;;;;;10251562;28;20124;-64
2022/11/25 12:29:37;;;;;;;109.40;102.15;;;;;;;;;;10256036;28;20125;-64
2022/11/25 12:34:37;;;;;;;108.95;100.95;;;;;;;;;;10242536;28;20755;-65
2022/11/25 12:39:38;;;;;;;107.63;100.18;;;;;;;;;;10246883;28;20041;-64
2022/11/25 12:44:57;;;;;;;112.80;105.03;;;;;;;;;;10237750;28;20043;-64
2022/11/25 12:49:54;;;;;;;111.63;104.07;;;;;;;;;;10241408;28;20129;-64
2022/11/25 12:54:50;;;;;;;113.13;105.07;;;;;;;;;;10247767;28;20140;-64
2022/11/25 12:59:53;;;;;;;119.90;111.93;;;;;;;;;;10243018;28;20048;-64
2022/11/25 13:05:21;;;;;;;114.40;106.60;;;;;;;;;;10246188;28;20057;-65
2022/11/25 13:10:52;;;;;;;117.35;109.13;;;;;;;;;;10241384;28;20500;-64
2022/11/25 13:15:50;;;;;;;113.70;106.30;;;;;;;;;;10250274;28;20141;-64
2022/11/25 13:20:48;;;;;;;112.10;104.82;;;;;;;;;;10244174;28;20128;-64
2022/11/25 13:25:46;;;;;;;111.30;103.72;;;;;;;;;;10244141;28;20132;-64
2022/11/25 13:30:43;;;;;;;116.25;108.68;;;;;;;;;;10243041;28;20056;-64
2022/11/25 13:35:42;;;;;;;115.47;107.93;;;;;;;;;;10240739;28;20042;-64
2022/11/25 13:40:39;;;;;;;120.13;111.75;;;;;;;;;;10251220;28;20128;-65
2022/11/25 13:45:41;;;;;;;117.13;108.97;;;;;;;;;;10241918;28;20045;-64
2022/11/25 13:50:38;;;;;;;;;;;;;;;;;;10234233;28;20052;-64
2022/11/25 13:56:10;;;;;;;117.82;109.90;;;;;;;;;;10236274;28;19929;-64
2022/11/25 14:01:21;;;;;;;118.43;110.30;;;;;;;;;;10244099;28;20133;-64
2022/11/25 14:06:27;;;;;;;122.53;113.75;;;;;;;;;;10235394;28;20042;-64
2022/11/25 14:11:48;;;;;;;125.57;116.50;;;;;;;;;;10243294;28;20419;-65
2022/11/25 14:16:50;;;;;;;124.20;115.70;;;;;;;;;;10235838;28;20049;-64
2022/11/25 14:21:59;;;;;;;125.70;117.28;;;;;;;;;;10243271;28;20046;-64
2022/11/25 14:26:56;;;;;;;129.98;120.90;;;;;;;;;;10241214;28;20156;-64
2022/11/25 14:31:56;;;;;;;124.95;116.13;;;;;;;;;;10235564;28;20045;-64
2022/11/25 14:36:56;;;;;;;124.22;116.05;;;;;;;;;;10255487;28;20069;-64
2022/11/25 14:42:01;;;;;;;125.05;116.65;;;;;;;;;;10247752;28;20414;-64
2022/11/25 14:46:57;;;;;;;122.68;114.32;;;;;;;;;;10253001;28;20116;-64
2022/11/25 14:51:53;;;;;;;116.05;108.13;;;;;;;;;;10255772;28;20073;-64
2022/11/25 14:56:50;;;;;;;119.13;111.28;;;;;;;;;;10246610;28;20128;-64
2022/11/25 15:01:50;;;;;;;120.68;111.88;;;;;;;;;;10259442;28;20044;-63
2022/11/25 15:06:48;;;;;;;124.63;116.15;;;;;;;;;;10244058;28;20392;-64
2022/11/25 15:11:45;;;;;;;117.53;109.85;;;;;;;;;;10251721;28;20078;-64
2022/11/25 15:16:42;;;;;;;121.50;113.00;;;;;;;;;;10254968;28;20121;-64
2022/11/25 15:21:40;;;;;;;112.72;105.03;;;;;;;;;;10248322;28;20769;-64
2022/11/25 15:27:00;;;;;;;118.63;110.53;;;;;;;;;;10258122;28;20110;-64
2022/11/25 15:31:57;;;;;;;115.45;107.35;;;;;;;;;;10256639;28;20056;-64
2022/11/25 15:36:54;;;;;;;118.72;110.20;;;;;;;;;;10242906;28;20049;-65
2022/11/25 15:42:06;;;;;;;114.60;106.63;;;;;;;;;;10249129;28;20042;-64
2022/11/25 15:47:21;;;;;;;119.53;111.13;;;;;;;;;;10245096;28;20422;-64
2022/11/25 15:52:19;;;;;;;118.88;111.10;;;;;;;;;;10263515;28;20063;-64
2022/11/25 15:57:18;;;;;;;116.85;108.65;;;;;;;;;;10247094;28;20041;-64
2022/11/25 16:02:33;;;;;;;118.43;110.18;;;;;;;;;;10247086;28;20037;-65
2022/11/25 16:07:29;;;;;;;119.25;110.88;;;;;;;;;;10246323;28;20056;-64
2022/11/25 16:12:26;;;;;;;118.25;109.95;;;;;;;;;;10251346;28;20091;-64
2022/11/25 16:17:22;;;;;;;118.90;110.88;;;;;;;;;;10248999;28;20128;-64
2022/11/25 16:22:19;;;;;;;119.32;111.05;;;;;;;;;;10251067;28;20049;-64
2022/11/25 16:27:18;;;;;;;120.20;111.82;;;;;;;;;;10239629;28;20056;-64
2022/11/25 16:32:18;;;;;;;122.70;114.07;;;;;;;;;;10246184;28;20052;-64
2022/11/25 16:37:15;;;;;;;120.90;112.40;;;;;;;;;;10254387;28;20036;-64
2022/11/25 16:42:16;;;;;;;117.45;109.22;;;;;;;;;;10250457;28;20040;-64
2022/11/25 16:47:12;;;;;;;119.72;110.93;;;;;;;;;;10247262;28;20041;-64
2022/11/25 16:52:08;;;;;;;118.25;110.03;;;;;;;;;;10252342;28;20041;-64
2022/11/25 16:57:06;;;;;;;116.30;108.20;;;;;;;;;;10242105;28;20577;-64
2022/11/25 17:02:04;;;;;;;119.18;110.57;;;;;;;;;;10253976;28;20045;-64
2022/11/25 17:07:01;;;;;;;119.78;111.38;;;;;;;;;;10239078;28;20502;-64
2022/11/25 17:12:21;;;;;;;124.07;114.88;;;;;;;;;;10253856;28;20656;-64
2022/11/25 17:17:22;;;;;;;118.88;109.97;;;;;;;;;;10243105;28;20132;-64
2022/11/25 17:22:21;;;;;;;122.47;113.70;;;;;;;;;;10241566;28;20052;-64
2022/11/25 17:27:20;;;;;;;115.85;107.43;;;;;;;;;;10240821;28;20088;-64
2022/11/25 17:32:16;;;;;;;116.38;108.15;;;;;;;;;;10246916;28;20132;-64
2022/11/25 17:37:14;;;;;;;125.32;114.38;;;;;;;;;;10251419;28;20041;-64
2022/11/25 17:42:12;;;;;;;121.00;112.20;;;;;;;;;;10251574;28;20057;-64
2022/11/25 17:47:12;;;;;;;120.88;112.07;;;;;;;;;;10242546;28;20049;-64
2022/11/25 17:52:09;;;;;;;120.38;111.15;;;;;;;;;;10242278;28;20119;-64
2022/11/25 17:57:06;;;;;;;122.70;113.85;;;;;;;;;;10242099;28;20041;-64
2022/11/25 18:02:09;;;;;;;119.03;110.28;;;;;;;;;;10250938;28;20120;-64
2022/11/25 18:07:06;;;;;;;121.18;111.65;;;;;;;;;;10239181;28;20514;-65
2022/11/25 18:12:08;;;;;;;119.05;109.68;;;;;;;;;;10247057;28;20052;-65
2022/11/25 18:17:05;;;;;;;118.43;108.50;;;;;;;;;;10246960;28;20054;-64
2022/11/25 18:22:11;;;;;;;114.75;105.78;;;;;;;;;;10257746;28;20045;-64
2022/11/25 18:27:18;;;;;;;115.80;106.28;;;;;;;;;;10247388;28;20037;-64
2022/11/25 18:32:14;;;;;;;114.60;105.75;;;;;;;;;;10249195;28;20056;-64
2022/11/25 18:37:11;;;;;;;114.72;105.55;;;;;;;;;;10250016;28;20071;-64
2022/11/25 18:42:16;;;;;;;121.10;111.70;;;;;;;;;;10236667;28;20140;-64
2022/11/25 18:47:12;;;;;;;122.63;113.32;;;;;;;;;;10252975;28;20044;-64
2022/11/25 18:52:08;;;;;;;121.53;112.18;;;;;;;;;;10252021;28;20380;-64
2022/11/25 18:57:04;;;;;;;122.25;112.80;;;;;;;;;;10249723;28;20052;-64
2022/11/25 19:02:01;;;;;;;119.20;110.20;;;;;;;;;;10243401;28;20048;-64
2022/11/25 19:06:57;;;;;;;121.85;112.78;;;;;;;;;;10247736;28;20048;-64
2022/11/25 19:11:54;;;;;;;123.90;113.68;;;;;;;;;;10254073;28;20044;-64
2022/11/25 19:16:50;;;;;;;121.05;111.85;;;;;;;;;;10247130;28;20119;-64
2022/11/25 19:21:47;;;;;;;130.35;119.15;;;;;;;;;;10248537;28;20397;-64
2022/11/25 19:26:50;;;;;;;121.05;111.53;;;;;;;;;;10251283;28;20477;-64
2022/11/25 19:31:48;;;;;;;127.57;116.93;;;;;;;;;;10243115;28;20587;-64
2022/11/25 19:36:44;;;;;;;125.75;115.28;;;;;;;;;;10243416;28;20076;-64
2022/11/25 19:41:40;;;;;;;130.98;120.72;;;;;;;;;;10255111;28;20511;-64
2022/11/25 19:46:39;;;;;;;128.30;118.18;;;;;;;;;;10251526;28;20137;-64
2022/11/25 19:51:55;;;;;;;133.65;122.82;;;;;;;;;;10256811;28;20099;-64
2022/11/25 19:56:51;;;;;;;130.45;120.15;;;;;;;;;;10246738;28;20159;-64
2022/11/25 20:01:47;;;;;;;131.98;121.43;;;;;;;;;;10256643;28;20478;-64
2022/11/25 20:06:44;;;;;;;127.47;116.90;;;;;;;;;;10246980;28;20511;-64
2022/11/25 20:11:40;;;;;;;129.35;118.80;;;;;;;;;;10251357;28;20132;-64
2022/11/25 20:16:39;;;;;;;131.20;120.28;;;;;;;;;;10253370;28;21685;-64
2022/11/25 20:21:36;;;;;;;125.88;116.00;;;;;;;;;;10247955;28;20045;-64
2022/11/25 20:26:36;;;;;;;131.32;121.15;;;;;;;;;;10252354;28;20132;-64
2022/11/25 20:31:32;;;;;;;129.65;119.22;;;;;;;;;;10236128;28;20037;-64
2022/11/25 20:36:30;;;;;;;128.13;118.10;;;;;;;;;;10234002;28;20048;-64
2022/11/25 20:41:28;;;;;;;131.77;121.10;;;;;;;;;;10237410;28;20119;-66
2022/11/25 20:46:28;;;;;;;127.65;117.45;;;;;;;;;;10249993;28;20125;-64
2022/11/25 20:51:25;;;;;;;130.32;119.80;;;;;;;;;;10257117;28;20084;-64
2022/11/25 20:56:22;;;;;;;129.88;119.75;;;;;;;;;;10245023;28;20503;-64
2022/11/25 21:01:18;;;;;;;132.18;121.28;;;;;;;;;;10252140;28;20042;-64
2022/11/25 21:06:17;;;;;;;127.65;118.10;;;;;;;;;;10247349;28;20047;-64
2022/11/25 21:11:14;;;;;;;130.10;119.43;;;;;;;;;;10247369;28;20043;-64
2022/11/25 21:16:11;;;;;;;131.57;121.78;;;;;;;;;;10249403;28;20042;-64
2022/11/25 21:21:14;;;;;;;135.35;124.65;;;;;;;;;;10248132;28;20047;-64
2022/11/25 21:26:14;;;;;;;129.57;119.82;;;;;;;;;;10240515;28;20570;-64
2022/11/25 21:31:15;;;;;;;135.52;124.38;;;;;;;;;;10238790;28;20144;-64
2022/11/25 21:36:14;;;;;;;127.28;118.15;;;;;;;;;;10242476;28;20132;-64
2022/11/25 21:41:11;;;;;;;125.43;115.60;;;;;;;;;;10242436;28;20045;-64
2022/11/25 21:46:10;;;;;;;123.47;113.78;;;;;;;;;;10235999;28;20052;-64
2022/11/25 21:51:09;;;;;;;121.38;111.47;;;;;;;;;;10243165;28;20392;-64
2022/11/25 21:56:24;;;;;;;124.28;114.50;;;;;;;;;;10238388;28;20136;-64
2022/11/25 22:01:20;;;;;;;125.78;115.90;;;;;;;;;;10254088;28;20060;-64
2022/11/25 22:06:27;;;;;;;118.97;109.53;;;;;;;;;;10238297;28;20045;-64
2022/11/25 22:11:28;;;;;;;116.90;108.10;;;;;;;;;;10245496;28;20069;-64
2022/11/25 22:16:29;;;;;;;118.25;107.97;;;;;;;;;;10244375;28;20041;-64
2022/11/25 22:21:25;;;;;;;117.95;108.80;;;;;;;;;;10245475;28;20061;-64
2022/11/25 22:26:29;;;;;;;116.30;107.55;;;;;;;;;;10248769;28;20068;-64
2022/11/25 22:31:26;;;;;;;116.60;107.60;;;;;;;;;;10247640;28;20132;-63
2022/11/25 22:36:28;;;;;;;117.55;108.10;;;;;;;;;;10246718;28;20045;-63
2022/11/25 22:41:25;;;;;;;112.35;103.68;;;;;;;;;;10241487;28;20041;-63
2022/11/25 22:46:21;;;;;;;118.10;109.45;;;;;;;;;;10241419;28;20034;-64
2022/11/25 22:51:20;;;;;;;118.80;109.65;;;;;;;;;;10234724;28;20049;-65
2022/11/25 22:56:17;;;;;;;124.25;113.68;;;;;;;;;;10235743;28;20048;-64
2022/11/25 23:01:14;;;;;;;119.90;109.80;;;;;;;;;;10246190;28;20446;-64
2022/11/25 23:06:11;;;;;;;118.78;108.97;;;;;;;;;;10247401;28;20463;-64
2022/11/25 23:11:15;;;;;;;122.43;113.15;;;;;;;;;;10252392;28;20052;-64
2022/11/25 23:16:11;;;;;;;118.78;109.55;;;;;;;;;;10253299;28;20075;-63
2022/11/25 23:21:19;;;;;;;119.40;110.18;;;;;;;;;;10251019;28;20057;-63
2022/11/25 23:26:15;;;;;;;122.32;113.15;;;;;;;;;;10245503;28;20411;-64
2022/11/25 23:31:12;;;;;;;122.43;112.97;;;;;;;;;;10245423;28;20441;-63
2022/11/25 23:36:10;;;;;;;125.38;115.30;;;;;;;;;;10251755;28;20069;-63
2022/11/25 23:41:11;;;;;;;123.43;113.93;;;;;;;;;;10248297;28;20128;-63
2022/11/25 23:46:08;;;;;;;117.22;108.40;;;;;;;;;;10244528;28;20730;-64
2022/11/25 23:51:06;;;;;;;128.02;117.93;;;;;;;;;;10247288;28;20087;-63
2022/11/25 23:56:02;;;;;;;128.45;119.22;;;;;;;;;;10237819;28;20071;-63
